sensor_id;sensor_type;location;lat;lon;timestamp;P1;P2;P0
70249;PMS5003;57644;48.416;-123.374;2022-09-12T00:01:24;35;35;
70249;PMS5003;57644;48.416;-123.374;2022-09-12T00:03:53;34;29;
70249;PMS5003;57644;48.416;-123.374;2022-09-12T00:06:25;37;34;
70249;PMS5003;57644;48.416;-123.374;2022-09-12T00:08:55;37;34;
70249;PMS5003;57644;48.416;-123.374;2022-09-12T00:11:25;34;31;
70249;PMS5003;57644;48.416;-123.374;2022-09-12T00:13:56;31;27;
70249;PMS5003;57644;48.416;-123.374;2022-09-12T00:16:27;30;28;
70249;PMS5003;57644;48.416;-123.374;2022-09-12T00:18:56;36;34;
70249;PMS5003;57644;48.416;-123.374;2022-09-12T00:21:27;33;32;
70249;PMS5003;57644;48.416;-123.374;2022-09-12T00:23:57;32;26;
70249;PMS5003;57644;48.416;-123.374;2022-09-12T00:26:28;37;35;
70249;PMS5003;57644;48.416;-123.374;2022-09-12T00:28:57;31;30;
70249;PMS5003;57644;48.416;-123.374;2022-09-12T00:31:28;30;30;
70249;PMS5003;57644;48.416;-123.374;2022-09-12T00:33:59;30;29;
70249;PMS5003;57644;48.416;-123.374;2022-09-12T00:36:29;36;35;
70249;PMS5003;57644;48.416;-123.374;2022-09-12T00:38:59;32;30;
70249;PMS5003;57644;48.416;-123.374;2022-09-12T00:41:31;44;41;
70249;PMS5003;57644;48.416;-123.374;2022-09-12T00:44:01;37;34;
70249;PMS5003;57644;48.416;-123.374;2022-09-12T00:46:33;29;29;
70249;PMS5003;57644;48.416;-123.374;2022-09-12T00:49:02;29;28;
70249;PMS5003;57644;48.416;-123.374;2022-09-12T00:51:32;30;28;
70249;PMS5003;57644;48.416;-123.374;2022-09-12T00:54:03;34;34;
70249;PMS5003;57644;48.416;-123.374;2022-09-12T00:56:32;38;37;
70249;PMS5003;57644;48.416;-123.374;2022-09-12T00:59:05;32;30;
70249;PMS5003;57644;48.416;-123.374;2022-09-12T01:01:34;31;29;
70249;PMS5003;57644;48.416;-123.374;2022-09-12T01:04:04;32;30;
70249;PMS5003;57644;48.416;-123.374;2022-09-12T01:06:36;33;31;
70249;PMS5003;57644;48.416;-123.374;2022-09-12T01:09:05;31;28;
70249;PMS5003;57644;48.416;-123.374;2022-09-12T01:11:36;31;30;
70249;PMS5003;57644;48.416;-123.374;2022-09-12T01:14:06;33;30;
70249;PMS5003;57644;48.416;-123.374;2022-09-12T01:16:36;27;26;
70249;PMS5003;57644;48.416;-123.374;2022-09-12T01:19:11;32;30;
70249;PMS5003;57644;48.416;-123.374;2022-09-12T01:21:38;30;28;
70249;PMS5003;57644;48.416;-123.374;2022-09-12T01:24:14;31;30;
70249;PMS5003;57644;48.416;-123.374;2022-09-12T01:29:13;31;29;
70249;PMS5003;57644;48.416;-123.374;2022-09-12T01:31:39;31;28;
70249;PMS5003;57644;48.416;-123.374;2022-09-12T01:34:11;33;31;
70249;PMS5003;57644;48.416;-123.374;2022-09-12T01:36:41;35;32;
70249;PMS5003;57644;48.416;-123.374;2022-09-12T01:39:13;30;27;
70249;PMS5003;57644;48.416;-123.374;2022-09-12T01:41:42;28;26;
70249;PMS5003;57644;48.416;-123.374;2022-09-12T01:44:12;28;28;
70249;PMS5003;57644;48.416;-123.374;2022-09-12T01:46:42;32;30;
70249;PMS5003;57644;48.416;-123.374;2022-09-12T01:49:14;29;29;
70249;PMS5003;57644;48.416;-123.374;2022-09-12T01:51:45;30;28;
70249;PMS5003;57644;48.416;-123.374;2022-09-12T01:54:15;31;29;
70249;PMS5003;57644;48.416;-123.374;2022-09-12T01:56:43;31;29;
70249;PMS5003;57644;48.416;-123.374;2022-09-12T01:59:15;28;27;
70249;PMS5003;57644;48.416;-123.374;2022-09-12T02:01:44;30;30;
70249;PMS5003;57644;48.416;-123.374;2022-09-12T02:04:15;37;34;
70249;PMS5003;57644;48.416;-123.374;2022-09-12T02:06:45;42;37;
70249;PMS5003;57644;48.416;-123.374;2022-09-12T02:09:16;38;36;
70249;PMS5003;57644;48.416;-123.374;2022-09-12T02:11:46;35;33;
70249;PMS5003;57644;48.416;-123.374;2022-09-12T02:14:17;30;27;
70249;PMS5003;57644;48.416;-123.374;2022-09-12T02:16:47;30;29;
70249;PMS5003;57644;48.416;-123.374;2022-09-12T02:19:19;29;26;
70249;PMS5003;57644;48.416;-123.374;2022-09-12T02:21:49;33;28;
70249;PMS5003;57644;48.416;-123.374;2022-09-12T02:24:18;25;25;
70249;PMS5003;57644;48.416;-123.374;2022-09-12T02:26:49;30;28;
70249;PMS5003;57644;48.416;-123.374;2022-09-12T02:29:18;38;33;
70249;PMS5003;57644;48.416;-123.374;2022-09-12T02:31:50;33;28;
70249;PMS5003;57644;48.416;-123.374;2022-09-12T02:34:25;30;27;
70249;PMS5003;57644;48.416;-123.374;2022-09-12T02:36:51;32;31;
70249;PMS5003;57644;48.416;-123.374;2022-09-12T02:39:20;31;30;
70249;PMS5003;57644;48.416;-123.374;2022-09-12T02:41:50;29;27;
70249;PMS5003;57644;48.416;-123.374;2022-09-12T02:44:20;33;32;
70249;PMS5003;57644;48.416;-123.374;2022-09-12T02:46:51;39;36;
70249;PMS5003;57644;48.416;-123.374;2022-09-12T02:49:21;35;34;
70249;PMS5003;57644;48.416;-123.374;2022-09-12T02:51:52;31;30;
70249;PMS5003;57644;48.416;-123.374;2022-09-12T02:54:21;40;37;
70249;PMS5003;57644;48.416;-123.374;2022-09-12T02:56:52;37;37;
70249;PMS5003;57644;48.416;-123.374;2022-09-12T02:59:23;33;31;
70249;PMS5003;57644;48.416;-123.374;2022-09-12T03:01:58;38;36;
70249;PMS5003;57644;48.416;-123.374;2022-09-12T03:04:28;34;33;
70249;PMS5003;57644;48.416;-123.374;2022-09-12T03:06:57;36;33;
70249;PMS5003;57644;48.416;-123.374;2022-09-12T03:09:26;38;36;
70249;PMS5003;57644;48.416;-123.374;2022-09-12T03:12:00;30;29;
70249;PMS5003;57644;48.416;-123.374;2022-09-12T03:14:29;37;35;
70249;PMS5003;57644;48.416;-123.374;2022-09-12T03:16:59;38;34;
70249;PMS5003;57644;48.416;-123.374;2022-09-12T03:19:28;39;38;
70249;PMS5003;57644;48.416;-123.374;2022-09-12T03:21:59;41;39;
70249;PMS5003;57644;48.416;-123.374;2022-09-12T03:24:28;42;39;
70249;PMS5003;57644;48.416;-123.374;2022-09-12T03:26:59;37;31;
70249;PMS5003;57644;48.416;-123.374;2022-09-12T03:29:28;40;38;
70249;PMS5003;57644;48.416;-123.374;2022-09-12T03:31:58;36;33;
70249;PMS5003;57644;48.416;-123.374;2022-09-12T03:34:29;30;30;
70249;PMS5003;57644;48.416;-123.374;2022-09-12T03:36:59;30;29;
70249;PMS5003;57644;48.416;-123.374;2022-09-12T03:39:29;35;33;
70249;PMS5003;57644;48.416;-123.374;2022-09-12T03:42:00;37;34;
70249;PMS5003;57644;48.416;-123.374;2022-09-12T03:44:30;36;34;
70249;PMS5003;57644;48.416;-123.374;2022-09-12T03:47:01;38;35;
70249;PMS5003;57644;48.416;-123.374;2022-09-12T03:49:31;29;28;
70249;PMS5003;57644;48.416;-123.374;2022-09-12T03:52:03;35;33;
70249;PMS5003;57644;48.416;-123.374;2022-09-12T03:54:31;38;36;
70249;PMS5003;57644;48.416;-123.374;2022-09-12T03:57:02;43;40;
70249;PMS5003;57644;48.416;-123.374;2022-09-12T03:59:32;49;46;
70249;PMS5003;57644;48.416;-123.374;2022-09-12T04:02:03;29;28;
70249;PMS5003;57644;48.416;-123.374;2022-09-12T04:04:33;33;32;
70249;PMS5003;57644;48.416;-123.374;2022-09-12T04:07:03;37;36;
70249;PMS5003;57644;48.416;-123.374;2022-09-12T04:09:34;34;34;
70249;PMS5003;57644;48.416;-123.374;2022-09-12T04:12:04;31;28;
70249;PMS5003;57644;48.416;-123.374;2022-09-12T04:14:35;35;34;
70249;PMS5003;57644;48.416;-123.374;2022-09-12T04:17:05;37;33;
70249;PMS5003;57644;48.416;-123.374;2022-09-12T04:19:36;38;35;
70249;PMS5003;57644;48.416;-123.374;2022-09-12T04:22:07;33;30;
70249;PMS5003;57644;48.416;-123.374;2022-09-12T04:24:37;32;30;
70249;PMS5003;57644;48.416;-123.374;2022-09-12T04:27:07;31;30;
70249;PMS5003;57644;48.416;-123.374;2022-09-12T04:29:47;36;35;
70249;PMS5003;57644;48.416;-123.374;2022-09-12T04:32:08;33;31;
70249;PMS5003;57644;48.416;-123.374;2022-09-12T04:34:38;35;32;
70249;PMS5003;57644;48.416;-123.374;2022-09-12T04:37:08;28;27;
70249;PMS5003;57644;48.416;-123.374;2022-09-12T04:39:39;32;31;
70249;PMS5003;57644;48.416;-123.374;2022-09-12T04:42:09;33;31;
70249;PMS5003;57644;48.416;-123.374;2022-09-12T04:44:39;38;35;
70249;PMS5003;57644;48.416;-123.374;2022-09-12T04:47:10;36;34;
70249;PMS5003;57644;48.416;-123.374;2022-09-12T04:49:40;32;31;
70249;PMS5003;57644;48.416;-123.374;2022-09-12T04:52:11;39;38;
70249;PMS5003;57644;48.416;-123.374;2022-09-12T04:54:49;32;30;
70249;PMS5003;57644;48.416;-123.374;2022-09-12T04:57:11;36;34;
70249;PMS5003;57644;48.416;-123.374;2022-09-12T04:59:42;46;41;
70249;PMS5003;57644;48.416;-123.374;2022-09-12T05:02:12;35;32;
70249;PMS5003;57644;48.416;-123.374;2022-09-12T05:04:42;34;31;
70249;PMS5003;57644;48.416;-123.374;2022-09-12T05:07:13;38;36;
70249;PMS5003;57644;48.416;-123.374;2022-09-12T05:09:44;31;31;
70249;PMS5003;57644;48.416;-123.374;2022-09-12T05:12:14;34;33;
70249;PMS5003;57644;48.416;-123.374;2022-09-12T05:14:45;30;29;
70249;PMS5003;57644;48.416;-123.374;2022-09-12T05:17:15;38;36;
70249;PMS5003;57644;48.416;-123.374;2022-09-12T05:19:46;41;36;
70249;PMS5003;57644;48.416;-123.374;2022-09-12T05:22:16;43;39;
70249;PMS5003;57644;48.416;-123.374;2022-09-12T05:24:46;36;35;
70249;PMS5003;57644;48.416;-123.374;2022-09-12T05:27:17;39;35;
70249;PMS5003;57644;48.416;-123.374;2022-09-12T05:29:47;35;35;
70249;PMS5003;57644;48.416;-123.374;2022-09-12T05:32:18;36;34;
70249;PMS5003;57644;48.416;-123.374;2022-09-12T05:34:48;38;37;
70249;PMS5003;57644;48.416;-123.374;2022-09-12T05:37:18;36;35;
70249;PMS5003;57644;48.416;-123.374;2022-09-12T05:39:48;37;35;
70249;PMS5003;57644;48.416;-123.374;2022-09-12T05:42:19;38;36;
70249;PMS5003;57644;48.416;-123.374;2022-09-12T05:44:49;38;35;
70249;PMS5003;57644;48.416;-123.374;2022-09-12T05:47:19;36;33;
70249;PMS5003;57644;48.416;-123.374;2022-09-12T05:49:49;34;31;
70249;PMS5003;57644;48.416;-123.374;2022-09-12T05:52:20;37;33;
70249;PMS5003;57644;48.416;-123.374;2022-09-12T05:54:51;38;37;
70249;PMS5003;57644;48.416;-123.374;2022-09-12T05:57:21;40;39;
70249;PMS5003;57644;48.416;-123.374;2022-09-12T05:59:51;41;37;
70249;PMS5003;57644;48.416;-123.374;2022-09-12T06:02:22;37;36;
70249;PMS5003;57644;48.416;-123.374;2022-09-12T06:04:52;41;39;
70249;PMS5003;57644;48.416;-123.374;2022-09-12T06:07:22;38;38;
70249;PMS5003;57644;48.416;-123.374;2022-09-12T06:09:52;40;38;
70249;PMS5003;57644;48.416;-123.374;2022-09-12T06:12:23;33;32;
70249;PMS5003;57644;48.416;-123.374;2022-09-12T06:14:53;40;38;
70249;PMS5003;57644;48.416;-123.374;2022-09-12T06:17:24;36;33;
70249;PMS5003;57644;48.416;-123.374;2022-09-12T06:19:54;34;33;
70249;PMS5003;57644;48.416;-123.374;2022-09-12T06:22:25;42;41;
70249;PMS5003;57644;48.416;-123.374;2022-09-12T06:24:55;44;42;
70249;PMS5003;57644;48.416;-123.374;2022-09-12T06:27:26;40;38;
70249;PMS5003;57644;48.416;-123.374;2022-09-12T06:29:56;43;40;
70249;PMS5003;57644;48.416;-123.374;2022-09-12T06:32:29;38;35;
70249;PMS5003;57644;48.416;-123.374;2022-09-12T06:34:57;42;40;
70249;PMS5003;57644;48.416;-123.374;2022-09-12T06:37:28;40;37;
70249;PMS5003;57644;48.416;-123.374;2022-09-12T06:39:59;47;41;
70249;PMS5003;57644;48.416;-123.374;2022-09-12T06:42:29;44;39;
70249;PMS5003;57644;48.416;-123.374;2022-09-12T06:45:00;37;36;
70249;PMS5003;57644;48.416;-123.374;2022-09-12T06:47:30;38;35;
70249;PMS5003;57644;48.416;-123.374;2022-09-12T06:50:01;37;35;
70249;PMS5003;57644;48.416;-123.374;2022-09-12T06:52:32;40;38;
70249;PMS5003;57644;48.416;-123.374;2022-09-12T06:55:02;38;37;
70249;PMS5003;57644;48.416;-123.374;2022-09-12T06:57:33;42;37;
70249;PMS5003;57644;48.416;-123.374;2022-09-12T07:00:05;40;38;
70249;PMS5003;57644;48.416;-123.374;2022-09-12T07:02:33;45;41;
70249;PMS5003;57644;48.416;-123.374;2022-09-12T07:05:04;41;40;
70249;PMS5003;57644;48.416;-123.374;2022-09-12T07:07:33;46;43;
70249;PMS5003;57644;48.416;-123.374;2022-09-12T07:10:04;39;38;
70249;PMS5003;57644;48.416;-123.374;2022-09-12T07:12:34;35;32;
70249;PMS5003;57644;48.416;-123.374;2022-09-12T07:15:05;36;35;
70249;PMS5003;57644;48.416;-123.374;2022-09-12T07:17:34;41;39;
70249;PMS5003;57644;48.416;-123.374;2022-09-12T07:20:05;40;37;
70249;PMS5003;57644;48.416;-123.374;2022-09-12T07:22:35;41;39;
70249;PMS5003;57644;48.416;-123.374;2022-09-12T07:25:06;42;39;
70249;PMS5003;57644;48.416;-123.374;2022-09-12T07:27:36;36;34;
70249;PMS5003;57644;48.416;-123.374;2022-09-12T07:30:07;40;36;
70249;PMS5003;57644;48.416;-123.374;2022-09-12T07:32:37;35;34;
70249;PMS5003;57644;48.416;-123.374;2022-09-12T07:35:08;40;36;
70249;PMS5003;57644;48.416;-123.374;2022-09-12T07:37:38;37;37;
70249;PMS5003;57644;48.416;-123.374;2022-09-12T07:40:09;44;41;
70249;PMS5003;57644;48.416;-123.374;2022-09-12T07:42:39;39;35;
70249;PMS5003;57644;48.416;-123.374;2022-09-12T07:45:09;42;38;
70249;PMS5003;57644;48.416;-123.374;2022-09-12T07:47:40;43;39;
70249;PMS5003;57644;48.416;-123.374;2022-09-12T07:50:10;42;37;
70249;PMS5003;57644;48.416;-123.374;2022-09-12T07:52:40;44;41;
70249;PMS5003;57644;48.416;-123.374;2022-09-12T07:55:11;39;37;
70249;PMS5003;57644;48.416;-123.374;2022-09-12T07:57:40;46;42;
70249;PMS5003;57644;48.416;-123.374;2022-09-12T08:00:12;42;39;
70249;PMS5003;57644;48.416;-123.374;2022-09-12T08:02:42;42;41;
70249;PMS5003;57644;48.416;-123.374;2022-09-12T08:05:13;37;37;
70249;PMS5003;57644;48.416;-123.374;2022-09-12T08:07:43;43;41;
70249;PMS5003;57644;48.416;-123.374;2022-09-12T08:10:14;39;38;
70249;PMS5003;57644;48.416;-123.374;2022-09-12T08:12:45;45;41;
70249;PMS5003;57644;48.416;-123.374;2022-09-12T08:15:15;38;35;
70249;PMS5003;57644;48.416;-123.374;2022-09-12T08:17:45;38;38;
70249;PMS5003;57644;48.416;-123.374;2022-09-12T08:20:16;40;38;
70249;PMS5003;57644;48.416;-123.374;2022-09-12T08:22:46;41;38;
70249;PMS5003;57644;48.416;-123.374;2022-09-12T08:25:17;39;38;
70249;PMS5003;57644;48.416;-123.374;2022-09-12T08:27:48;37;35;
70249;PMS5003;57644;48.416;-123.374;2022-09-12T08:30:18;40;38;
70249;PMS5003;57644;48.416;-123.374;2022-09-12T08:32:49;43;41;
70249;PMS5003;57644;48.416;-123.374;2022-09-12T08:35:20;42;40;
70249;PMS5003;57644;48.416;-123.374;2022-09-12T08:37:50;45;41;
70249;PMS5003;57644;48.416;-123.374;2022-09-12T08:40:21;47;44;
70249;PMS5003;57644;48.416;-123.374;2022-09-12T08:42:53;50;46;
70249;PMS5003;57644;48.416;-123.374;2022-09-12T08:45:23;47;43;
70249;PMS5003;57644;48.416;-123.374;2022-09-12T08:47:52;47;44;
70249;PMS5003;57644;48.416;-123.374;2022-09-12T08:50:22;40;37;
70249;PMS5003;57644;48.416;-123.374;2022-09-12T08:52:55;42;40;
70249;PMS5003;57644;48.416;-123.374;2022-09-12T08:55:27;46;43;
70249;PMS5003;57644;48.416;-123.374;2022-09-12T08:57:53;40;38;
70249;PMS5003;57644;48.416;-123.374;2022-09-12T09:00:24;36;35;
70249;PMS5003;57644;48.416;-123.374;2022-09-12T09:05:28;40;39;
70249;PMS5003;57644;48.416;-123.374;2022-09-12T09:10:27;44;42;
70249;PMS5003;57644;48.416;-123.374;2022-09-12T09:12:58;44;41;
70249;PMS5003;57644;48.416;-123.374;2022-09-12T09:15:32;40;40;
70249;PMS5003;57644;48.416;-123.374;2022-09-12T09:17:58;41;40;
70249;PMS5003;57644;48.416;-123.374;2022-09-12T09:20:30;45;42;
70249;PMS5003;57644;48.416;-123.374;2022-09-12T09:23:01;43;42;
70249;PMS5003;57644;48.416;-123.374;2022-09-12T09:25:35;45;41;
70249;PMS5003;57644;48.416;-123.374;2022-09-12T09:28:01;50;45;
70249;PMS5003;57644;48.416;-123.374;2022-09-12T09:30:31;40;36;
70249;PMS5003;57644;48.416;-123.374;2022-09-12T09:33:01;44;40;
70249;PMS5003;57644;48.416;-123.374;2022-09-12T09:35:37;44;40;
70249;PMS5003;57644;48.416;-123.374;2022-09-12T09:38:07;45;44;
70249;PMS5003;57644;48.416;-123.374;2022-09-12T09:40:36;42;41;
70249;PMS5003;57644;48.416;-123.374;2022-09-12T09:43:05;46;45;
70249;PMS5003;57644;48.416;-123.374;2022-09-12T09:45:34;49;46;
70249;PMS5003;57644;48.416;-123.374;2022-09-12T09:48:09;38;37;
70249;PMS5003;57644;48.416;-123.374;2022-09-12T09:50:34;45;41;
70249;PMS5003;57644;48.416;-123.374;2022-09-12T09:53:05;45;43;
70249;PMS5003;57644;48.416;-123.374;2022-09-12T09:55:37;46;45;
70249;PMS5003;57644;48.416;-123.374;2022-09-12T09:58:05;48;42;
70249;PMS5003;57644;48.416;-123.374;2022-09-12T10:00:37;44;41;
70249;PMS5003;57644;48.416;-123.374;2022-09-12T10:05:43;41;40;
70249;PMS5003;57644;48.416;-123.374;2022-09-12T10:08:06;47;44;
70249;PMS5003;57644;48.416;-123.374;2022-09-12T10:10:37;39;37;
70249;PMS5003;57644;48.416;-123.374;2022-09-12T10:13:20;46;45;
70249;PMS5003;57644;48.416;-123.374;2022-09-12T10:15:38;43;42;
70249;PMS5003;57644;48.416;-123.374;2022-09-12T10:18:08;44;40;
70249;PMS5003;57644;48.416;-123.374;2022-09-12T10:20:38;41;40;
70249;PMS5003;57644;48.416;-123.374;2022-09-12T10:25:40;45;45;
70249;PMS5003;57644;48.416;-123.374;2022-09-12T10:28:15;48;45;
70249;PMS5003;57644;48.416;-123.374;2022-09-12T10:30:40;50;49;
70249;PMS5003;57644;48.416;-123.374;2022-09-12T10:33:11;44;41;
70249;PMS5003;57644;48.416;-123.374;2022-09-12T10:35:42;43;41;
70249;PMS5003;57644;48.416;-123.374;2022-09-12T10:38:12;43;42;
70249;PMS5003;57644;48.416;-123.374;2022-09-12T10:40:42;44;42;
70249;PMS5003;57644;48.416;-123.374;2022-09-12T10:43:17;48;43;
70249;PMS5003;57644;48.416;-123.374;2022-09-12T10:45:43;44;43;
70249;PMS5003;57644;48.416;-123.374;2022-09-12T10:50:44;48;44;
70249;PMS5003;57644;48.416;-123.374;2022-09-12T10:53:17;43;41;
70249;PMS5003;57644;48.416;-123.374;2022-09-12T10:55:51;45;42;
70249;PMS5003;57644;48.416;-123.374;2022-09-12T11:00:46;44;43;
70249;PMS5003;57644;48.416;-123.374;2022-09-12T11:03:21;47;42;
70249;PMS5003;57644;48.416;-123.374;2022-09-12T11:05:50;44;43;
70249;PMS5003;57644;48.416;-123.374;2022-09-12T11:08:20;50;45;
70249;PMS5003;57644;48.416;-123.374;2022-09-12T11:10:48;47;46;
70249;PMS5003;57644;48.416;-123.374;2022-09-12T11:13:20;44;40;
70249;PMS5003;57644;48.416;-123.374;2022-09-12T11:15:50;47;44;
70249;PMS5003;57644;48.416;-123.374;2022-09-12T11:18:23;47;42;
70249;PMS5003;57644;48.416;-123.374;2022-09-12T11:20:53;48;45;
70249;PMS5003;57644;48.416;-123.374;2022-09-12T11:23:24;51;48;
70249;PMS5003;57644;48.416;-123.374;2022-09-12T11:25:50;49;44;
70249;PMS5003;57644;48.416;-123.374;2022-09-12T11:28:23;41;40;
70249;PMS5003;57644;48.416;-123.374;2022-09-12T11:30:53;48;42;
70249;PMS5003;57644;48.416;-123.374;2022-09-12T11:33:23;49;45;
70249;PMS5003;57644;48.416;-123.374;2022-09-12T11:35:50;48;46;
70249;PMS5003;57644;48.416;-123.374;2022-09-12T11:38:26;47;45;
70249;PMS5003;57644;48.416;-123.374;2022-09-12T11:40:52;45;43;
70249;PMS5003;57644;48.416;-123.374;2022-09-12T11:43:24;47;44;
70249;PMS5003;57644;48.416;-123.374;2022-09-12T11:45:52;44;42;
70249;PMS5003;57644;48.416;-123.374;2022-09-12T11:48:26;43;42;
70249;PMS5003;57644;48.416;-123.374;2022-09-12T11:50:53;44;42;
70249;PMS5003;57644;48.416;-123.374;2022-09-12T11:53:25;44;43;
70249;PMS5003;57644;48.416;-123.374;2022-09-12T11:55:57;41;38;
70249;PMS5003;57644;48.416;-123.374;2022-09-12T11:58:26;40;40;
70249;PMS5003;57644;48.416;-123.374;2022-09-12T12:00:56;46;43;
70249;PMS5003;57644;48.416;-123.374;2022-09-12T12:03:27;44;40;
70249;PMS5003;57644;48.416;-123.374;2022-09-12T12:05:58;44;41;
70249;PMS5003;57644;48.416;-123.374;2022-09-12T12:08:27;49;45;
70249;PMS5003;57644;48.416;-123.374;2022-09-12T12:10:57;47;46;
70249;PMS5003;57644;48.416;-123.374;2022-09-12T12:13:28;38;38;
70249;PMS5003;57644;48.416;-123.374;2022-09-12T12:15:59;41;39;
70249;PMS5003;57644;48.416;-123.374;2022-09-12T12:18:29;44;40;
70249;PMS5003;57644;48.416;-123.374;2022-09-12T12:23:30;40;38;
70249;PMS5003;57644;48.416;-123.374;2022-09-12T12:26:01;50;48;
70249;PMS5003;57644;48.416;-123.374;2022-09-12T12:31:02;40;36;
70249;PMS5003;57644;48.416;-123.374;2022-09-12T12:36:04;43;42;
70249;PMS5003;57644;48.416;-123.374;2022-09-12T12:38:33;43;42;
70249;PMS5003;57644;48.416;-123.374;2022-09-12T12:43:34;44;41;
70249;PMS5003;57644;48.416;-123.374;2022-09-12T12:46:06;46;44;
70249;PMS5003;57644;48.416;-123.374;2022-09-12T12:53:39;41;40;
70249;PMS5003;57644;48.416;-123.374;2022-09-12T12:56:12;40;39;
70249;PMS5003;57644;48.416;-123.374;2022-09-12T12:58:37;50;44;
70249;PMS5003;57644;48.416;-123.374;2022-09-12T13:01:09;47;47;
70249;PMS5003;57644;48.416;-123.374;2022-09-12T13:03:38;44;43;
70249;PMS5003;57644;48.416;-123.374;2022-09-12T13:06:08;50;46;
70249;PMS5003;57644;48.416;-123.374;2022-09-12T13:08:38;48;44;
70249;PMS5003;57644;48.416;-123.374;2022-09-12T13:11:09;46;43;
70249;PMS5003;57644;48.416;-123.374;2022-09-12T13:13:39;51;45;
70249;PMS5003;57644;48.416;-123.374;2022-09-12T13:16:09;44;42;
70249;PMS5003;57644;48.416;-123.374;2022-09-12T13:18:40;46;42;
70249;PMS5003;57644;48.416;-123.374;2022-09-12T13:21:11;43;38;
70249;PMS5003;57644;48.416;-123.374;2022-09-12T13:23:41;47;45;
70249;PMS5003;57644;48.416;-123.374;2022-09-12T13:26:13;46;45;
70249;PMS5003;57644;48.416;-123.374;2022-09-12T13:28:42;44;43;
70249;PMS5003;57644;48.416;-123.374;2022-09-12T13:31:14;44;41;
70249;PMS5003;57644;48.416;-123.374;2022-09-12T13:33:44;44;43;
70249;PMS5003;57644;48.416;-123.374;2022-09-12T13:36:21;44;41;
70249;PMS5003;57644;48.416;-123.374;2022-09-12T13:38:46;48;47;
70249;PMS5003;57644;48.416;-123.374;2022-09-12T13:41:18;42;42;
70249;PMS5003;57644;48.416;-123.374;2022-09-12T13:43:43;40;38;
70249;PMS5003;57644;48.416;-123.374;2022-09-12T13:46:14;46;44;
70249;PMS5003;57644;48.416;-123.374;2022-09-12T13:48:44;51;50;
70249;PMS5003;57644;48.416;-123.374;2022-09-12T13:51:20;49;46;
70249;PMS5003;57644;48.416;-123.374;2022-09-12T13:53:45;46;44;
70249;PMS5003;57644;48.416;-123.374;2022-09-12T13:56:16;41;39;
70249;PMS5003;57644;48.416;-123.374;2022-09-12T14:01:17;46;45;
70249;PMS5003;57644;48.416;-123.374;2022-09-12T14:03:48;44;38;
70249;PMS5003;57644;48.416;-123.374;2022-09-12T14:06:18;51;47;
70249;PMS5003;57644;48.416;-123.374;2022-09-12T14:08:48;49;46;
70249;PMS5003;57644;48.416;-123.374;2022-09-12T14:11:22;49;45;
70249;PMS5003;57644;48.416;-123.374;2022-09-12T14:13:49;42;39;
70249;PMS5003;57644;48.416;-123.374;2022-09-12T14:16:19;47;43;
70249;PMS5003;57644;48.416;-123.374;2022-09-12T14:18:49;48;44;
70249;PMS5003;57644;48.416;-123.374;2022-09-12T14:23:51;47;45;
70249;PMS5003;57644;48.416;-123.374;2022-09-12T14:26:21;45;43;
70249;PMS5003;57644;48.416;-123.374;2022-09-12T14:28:51;50;46;
70249;PMS5003;57644;48.416;-123.374;2022-09-12T14:31:22;42;40;
70249;PMS5003;57644;48.416;-123.374;2022-09-12T14:33:52;48;48;
70249;PMS5003;57644;48.416;-123.374;2022-09-12T14:36:23;51;45;
70249;PMS5003;57644;48.416;-123.374;2022-09-12T14:38:54;36;36;
70249;PMS5003;57644;48.416;-123.374;2022-09-12T14:41:24;42;41;
70249;PMS5003;57644;48.416;-123.374;2022-09-12T14:43:54;46;43;
70249;PMS5003;57644;48.416;-123.374;2022-09-12T14:46:25;45;43;
70249;PMS5003;57644;48.416;-123.374;2022-09-12T14:48:55;49;45;
70249;PMS5003;57644;48.416;-123.374;2022-09-12T14:51:24;44;42;
70249;PMS5003;57644;48.416;-123.374;2022-09-12T14:53:54;46;45;
70249;PMS5003;57644;48.416;-123.374;2022-09-12T14:59:18;45;39;
70249;PMS5003;57644;48.416;-123.374;2022-09-12T15:01:27;53;45;
70249;PMS5003;57644;48.416;-123.374;2022-09-12T15:03:58;45;44;
70249;PMS5003;57644;48.416;-123.374;2022-09-12T16:43:54;29;29;
70249;PMS5003;57644;48.416;-123.374;2022-09-12T16:46:24;33;33;
70249;PMS5003;57644;48.416;-123.374;2022-09-12T16:48:56;35;34;
70249;PMS5003;57644;48.416;-123.374;2022-09-12T16:51:24;34;32;
70249;PMS5003;57644;48.416;-123.374;2022-09-12T16:53:54;39;37;
70249;PMS5003;57644;48.416;-123.374;2022-09-12T16:56:24;32;32;
70249;PMS5003;57644;48.416;-123.374;2022-09-12T16:58:56;34;32;
70249;PMS5003;57644;48.416;-123.374;2022-09-12T17:01:28;32;32;
70249;PMS5003;57644;48.416;-123.374;2022-09-12T17:04:00;37;35;
70249;PMS5003;57644;48.416;-123.374;2022-09-12T17:06:26;26;26;
70249;PMS5003;57644;48.416;-123.374;2022-09-12T17:08:57;34;34;
70249;PMS5003;57644;48.416;-123.374;2022-09-12T17:11:27;34;33;
70249;PMS5003;57644;48.416;-123.374;2022-09-12T17:13:58;30;28;
70249;PMS5003;57644;48.416;-123.374;2022-09-12T17:16:27;34;31;
70249;PMS5003;57644;48.416;-123.374;2022-09-12T17:18:57;43;43;
70249;PMS5003;57644;48.416;-123.374;2022-09-12T17:21:28;36;36;
70249;PMS5003;57644;48.416;-123.374;2022-09-12T17:23:59;34;34;
70249;PMS5003;57644;48.416;-123.374;2022-09-12T17:26:30;33;33;
70249;PMS5003;57644;48.416;-123.374;2022-09-12T17:29:00;34;32;
70249;PMS5003;57644;48.416;-123.374;2022-09-12T17:31:33;31;30;
70249;PMS5003;57644;48.416;-123.374;2022-09-12T17:34:00;29;28;
70249;PMS5003;57644;48.416;-123.374;2022-09-12T17:36:32;30;30;
70249;PMS5003;57644;48.416;-123.374;2022-09-12T17:39:01;32;30;
70249;PMS5003;57644;48.416;-123.374;2022-09-12T17:41:39;34;33;
70249;PMS5003;57644;48.416;-123.374;2022-09-12T17:44:04;33;32;
70249;PMS5003;57644;48.416;-123.374;2022-09-12T17:49:05;38;34;
70249;PMS5003;57644;48.416;-123.374;2022-09-12T17:54:08;35;33;
70249;PMS5003;57644;48.416;-123.374;2022-09-12T17:59:16;31;30;
70249;PMS5003;57644;48.416;-123.374;2022-09-12T18:01:35;36;34;
70249;PMS5003;57644;48.416;-123.374;2022-09-12T18:04:06;41;38;
70249;PMS5003;57644;48.416;-123.374;2022-09-12T18:06:36;36;34;
70249;PMS5003;57644;48.416;-123.374;2022-09-12T18:09:07;34;33;
70249;PMS5003;57644;48.416;-123.374;2022-09-12T18:11:37;34;33;
70249;PMS5003;57644;48.416;-123.374;2022-09-12T18:14:07;35;32;
70249;PMS5003;57644;48.416;-123.374;2022-09-12T18:16:37;34;32;